Time;durP1;ratioP1;P1;durP2;ratioP2;P2;SDS_P1;SDS_P2;PMS_P1;PMS_P2;Temp;Humidity;BMP_temperature;BMP_pressure;BME280_temperature;BME280_humidity;BME280_pressure;Samples;Min_cycle;Max_cycle;Signal;HPM_P1;HPM_P2
2022/01/04 00:00:54;;;;;;;6.95;2.65;;;;;;;8.42;81.81;98651.09;5034014;28;20124;-55
2022/01/04 00:03:25;;;;;;;3.47;2.47;;;;;;;8.40;81.88;98651.09;5032463;28;20046;-55
2022/01/04 00:05:50;;;;;;;3.85;2.42;;;;;;;8.40;81.83;98650.25;5016542;28;20037;-55
2022/01/04 00:08:23;;;;;;;3.58;2.75;;;;;;;8.40;81.65;98645.09;5032992;28;20449;-55
2022/01/04 00:10:49;;;;;;;2.55;2.35;;;;;;;8.39;81.73;98646.78;5031969;28;20554;-55
2022/01/04 00:13:24;;;;;;;4.72;3.10;;;;;;;8.38;81.76;98642.47;5034122;28;20091;-56
2022/01/04 00:15:52;;;;;;;2.90;2.30;;;;;;;8.36;81.98;98637.34;5033377;28;20040;-55
2022/01/04 00:18:22;;;;;;;4.78;3.10;;;;;;;8.34;81.74;98628.72;5016714;28;20037;-55
2022/01/04 00:20:50;;;;;;;4.38;2.53;;;;;;;8.33;81.70;98621.81;5016298;28;20519;-55
2022/01/04 00:23:16;;;;;;;3.22;2.05;;;;;;;8.34;81.63;98620.09;5033764;28;20041;-55
2022/01/04 00:25:42;;;;;;;5.05;2.35;;;;;;;8.33;81.70;98611.50;5033843;28;20493;-54
2022/01/04 00:28:12;;;;;;;4.28;2.30;;;;;;;8.30;81.59;98601.16;5016319;28;20048;-55
2022/01/04 00:30:39;;;;;;;2.60;2.13;;;;;;;8.32;81.65;98611.50;5016141;28;20033;-55
2022/01/04 00:33:09;;;;;;;6.25;2.97;;;;;;;8.29;81.63;98599.44;5015995;28;20061;-56
2022/01/04 00:35:36;;;;;;;4.22;2.45;;;;;;;8.30;81.82;98590.00;5032579;28;20491;-55
2022/01/04 00:38:10;;;;;;;6.15;2.80;;;;;;;8.28;81.81;98583.97;5016284;28;20033;-55
2022/01/04 00:40:37;;;;;;;8.25;2.45;;;;;;;8.28;81.59;98583.97;5017019;28;20124;-56
2022/01/04 00:43:04;;;;;;;3.83;2.35;;;;;;;8.28;81.69;98571.06;5033833;28;20065;-55
2022/01/04 00:45:32;;;;;;;5.72;3.47;;;;;;;8.28;81.64;98568.47;5015991;28;20488;-56
2022/01/04 00:50:29;;;;;;;5.20;3.60;;;;;;;8.28;81.81;98560.72;5032499;28;20064;-55
2022/01/04 00:52:55;;;;;;;10.30;4.38;;;;;;;8.27;81.63;98556.44;5032044;28;20413;-55
2022/01/04 00:55:23;;;;;;;7.88;3.90;;;;;;;8.26;81.86;98552.97;5016536;28;20035;-55
2022/01/04 00:57:51;;;;;;;9.52;4.25;;;;;;;8.26;81.67;98539.22;5032472;28;20045;-55
2022/01/04 01:00:20;;;;;;;8.82;3.78;;;;;;;8.25;81.92;98522.88;5033664;28;20033;-56
2022/01/04 01:02:49;;;;;;;8.57;4.20;;;;;;;8.26;81.55;98521.16;5033207;28;20056;-54
2022/01/04 01:05:16;;;;;;;5.43;3.70;;;;;;;8.27;81.67;98510.81;5015662;28;20046;-56
2022/01/04 01:07:42;;;;;;;6.22;4.13;;;;;;;8.26;81.79;98519.41;5031857;28;20029;-56
2022/01/04 01:12:47;;;;;;;4.70;3.42;;;;;;;8.26;81.83;98505.66;5032442;28;20044;-56
2022/01/04 01:15:19;;;;;;;5.18;3.17;;;;;;;8.25;81.80;98504.81;5032931;28;20432;-56
2022/01/04 01:17:44;;;;;;;5.72;3.65;;;;;;;8.25;81.84;98507.41;5015494;28;20052;-56
2022/01/04 01:20:11;;;;;;;5.63;3.30;;;;;;;8.24;81.84;98505.66;5032037;28;20124;-54
2022/01/04 01:22:37;;;;;;;5.03;3.70;;;;;;;8.25;81.73;98497.06;5019242;28;20038;-56
2022/01/04 01:25:07;;;;;;;4.35;3.22;;;;;;;8.22;81.76;98494.47;5037560;28;20049;-56
2022/01/04 01:27:35;;;;;;;4.32;2.88;;;;;;;8.24;81.72;98492.75;5037433;28;20041;-56
2022/01/04 01:30:03;;;;;;;3.75;2.55;;;;;;;8.22;82.10;98495.31;5037018;28;20033;-56
2022/01/04 01:32:28;;;;;;;4.10;2.72;;;;;;;8.22;81.67;98492.75;5036915;28;20473;-56
2022/01/04 01:34:54;;;;;;;3.95;2.55;;;;;;;8.21;81.68;98478.13;5035673;28;20475;-56
2022/01/04 01:37:19;;;;;;;3.90;3.00;;;;;;;8.21;81.63;98483.28;5037282;28;20509;-55
2022/01/04 01:39:47;;;;;;;3.47;2.88;;;;;;;8.21;81.75;98475.53;5035789;28;20037;-56
2022/01/04 01:42:13;;;;;;;2.65;2.33;;;;;;;8.20;81.70;98478.97;5037259;28;20038;-56
2022/01/04 01:44:42;;;;;;;5.35;3.40;;;;;;;8.20;81.93;98470.38;5019238;28;20044;-56
2022/01/04 01:47:08;;;;;;;3.50;3.00;;;;;;;8.21;81.55;98480.69;5018815;28;20404;-57
2022/01/04 01:49:34;;;;;;;3.55;2.53;;;;;;;8.22;81.70;98481.56;5019068;28;20026;-56
2022/01/04 01:52:01;;;;;;;6.15;3.63;;;;;;;8.22;81.70;98479.00;5035285;28;20546;-56
2022/01/04 01:54:27;;;;;;;4.30;2.88;;;;;;;8.22;81.80;98471.25;5036779;28;20033;-56
2022/01/04 01:56:53;;;;;;;5.40;3.17;;;;;;;8.24;81.60;98474.69;5036050;28;20041;-56
2022/01/04 01:59:20;;;;;;;4.70;3.38;;;;;;;8.24;81.90;98464.38;5035489;28;20047;-56
2022/01/04 02:01:48;;;;;;;5.00;3.70;;;;;;;8.23;81.88;98457.50;5036342;28;20060;-56
2022/01/04 02:04:14;;;;;;;4.40;3.83;;;;;;;8.24;81.75;98461.78;5036457;28;20040;-55
2022/01/04 02:06:40;;;;;;;4.88;3.60;;;;;;;8.25;81.46;98463.50;5036600;28;20118;-54
2022/01/04 02:09:06;;;;;;;5.30;3.28;;;;;;;8.24;81.62;98448.88;5035203;28;20580;-54
2022/01/04 02:11:32;;;;;;;4.65;3.92;;;;;;;8.23;81.75;98448.00;5018577;28;20132;-54
2022/01/04 02:14:02;;;;;;;5.60;3.72;;;;;;;8.24;81.64;98443.72;5034940;28;20030;-54
2022/01/04 02:16:30;;;;;;;4.35;3.60;;;;;;;8.25;81.69;98439.41;5035029;28;20063;-54
2022/01/04 02:19:07;;;;;;;9.90;4.53;;;;;;;8.25;81.67;98444.56;5018910;28;20397;-54
2022/01/04 02:21:34;;;;;;;4.95;3.83;;;;;;;8.26;81.93;98441.13;5018878;28;20034;-54
2022/01/04 02:24:00;;;;;;;4.65;3.78;;;;;;;8.27;81.70;98441.13;5018586;28;20065;-54
2022/01/04 02:26:29;;;;;;;8.95;3.80;;;;;;;8.27;81.53;98429.94;5018399;28;20076;-54
2022/01/04 02:28:58;;;;;;;7.18;4.22;;;;;;;8.27;81.67;98433.38;5036180;28;20033;-54
2022/01/04 02:31:24;;;;;;;5.80;3.75;;;;;;;8.27;81.79;98428.22;5034844;28;20040;-55
2022/01/04 02:33:50;;;;;;;7.55;3.58;;;;;;;8.28;81.37;98429.94;5035001;28;20033;-54
2022/01/04 02:36:15;;;;;;;5.18;3.47;;;;;;;8.27;81.64;98425.63;5035763;28;20041;-53
2022/01/04 02:38:41;;;;;;;4.38;3.60;;;;;;;8.27;81.64;98411.88;5035788;28;20065;-56
2022/01/04 02:41:06;;;;;;;5.28;3.42;;;;;;;8.26;81.64;98408.44;5035669;28;20041;-56
2022/01/04 02:43:33;;;;;;;6.38;3.80;;;;;;;8.26;81.73;98412.75;5035647;28;20099;-56
2022/01/04 02:45:58;;;;;;;4.88;3.70;;;;;;;8.24;81.79;98407.59;5034190;28;20063;-56
2022/01/04 02:48:32;;;;;;;8.20;4.30;;;;;;;8.25;81.74;98392.94;5035688;28;20037;-56
2022/01/04 02:51:00;;;;;;;6.15;4.03;;;;;;;8.21;81.52;98395.53;5034865;28;20040;-56
2022/01/04 02:53:26;;;;;;;8.13;3.60;;;;;;;8.19;81.67;98386.06;5034579;28;20038;-56
2022/01/04 02:55:53;;;;;;;5.93;3.33;;;;;;;8.17;81.63;98380.94;5035902;28;20034;-56
2022/01/04 02:58:21;;;;;;;6.95;3.45;;;;;;;8.17;81.94;98360.28;5035033;28;20098;-56
2022/01/04 03:00:47;;;;;;;5.10;3.15;;;;;;;8.14;81.69;98349.97;5036025;28;20107;-56
2022/01/04 03:03:13;;;;;;;8.90;3.70;;;;;;;8.16;81.62;98347.38;5035323;28;20501;-56
2022/01/04 03:05:38;;;;;;;5.47;3.40;;;;;;;8.14;81.64;98342.22;5017825;28;20045;-56
2022/01/04 03:08:04;;;;;;;4.35;2.92;;;;;;;8.14;81.69;98337.06;5034278;28;20033;-56
2022/01/04 03:10:29;;;;;;;6.38;3.45;;;;;;;8.14;81.73;98331.03;5035221;28;20124;-56
2022/01/04 03:13:02;;;;;;;4.28;2.70;;;;;;;8.09;81.76;98328.44;5035245;28;20040;-56
2022/01/04 03:15:28;;;;;;;8.32;3.58;;;;;;;8.09;81.92;98325.88;5035272;28;20068;-56
2022/01/04 03:17:56;;;;;;;7.40;3.05;;;;;;;8.07;81.90;98320.72;5035132;28;20037;-56
2022/01/04 03:20:24;;;;;;;5.13;3.55;;;;;;;8.08;81.65;98313.84;5017430;28;20473;-56
2022/01/04 03:22:50;;;;;;;4.40;3.33;;;;;;;8.06;81.66;98308.69;5033946;28;20082;-56
2022/01/04 03:25:18;;;;;;;4.78;3.45;;;;;;;8.07;81.63;98304.38;5035082;28;20049;-56
2022/01/04 03:27:50;;;;;;;6.35;3.97;;;;;;;8.06;81.77;98300.06;5034942;28;20489;-56
2022/01/04 03:30:15;;;;;;;4.88;4.18;;;;;;;8.03;81.75;98290.63;5033663;28;20473;-56
2022/01/04 03:32:41;;;;;;;6.88;3.78;;;;;;;8.03;81.70;98282.88;5034766;28;20033;-56
2022/01/04 03:35:07;;;;;;;6.00;3.60;;;;;;;8.03;81.35;98277.72;5034689;28;20041;-56
2022/01/04 03:37:35;;;;;;;5.47;3.58;;;;;;;8.04;81.58;98270.84;5017246;28;20041;-56
2022/01/04 03:40:01;;;;;;;5.20;3.45;;;;;;;8.05;81.61;98267.38;5033392;28;20045;-56
2022/01/04 03:42:28;;;;;;;6.57;4.22;;;;;;;8.06;81.66;98269.09;5034204;28;20041;-56
2022/01/04 03:44:55;;;;;;;4.50;3.75;;;;;;;8.05;81.74;98257.06;5016460;28;20125;-56
2022/01/04 03:47:23;;;;;;;7.40;4.20;;;;;;;8.05;81.81;98257.06;5034339;28;20120;-56
2022/01/04 03:49:48;;;;;;;5.65;3.78;;;;;;;8.04;81.70;98235.59;5016863;28;20033;-56
2022/01/04 03:52:15;;;;;;;7.18;3.50;;;;;;;8.05;81.61;98232.16;5034443;28;20041;-56
2022/01/04 03:54:43;;;;;;;4.47;2.92;;;;;;;8.04;82.10;98227.84;5033067;28;20087;-57
2022/01/04 03:57:11;;;;;;;3.92;2.83;;;;;;;8.04;81.63;98224.38;5034203;28;20124;-56
2022/01/04 03:59:39;;;;;;;5.45;3.25;;;;;;;8.04;81.68;98214.06;5016602;28;20558;-56
2022/01/04 04:02:05;;;;;;;5.05;3.88;;;;;;;8.04;81.76;98199.47;5034375;28;20141;-56
2022/01/04 04:04:35;;;;;;;6.43;4.43;;;;;;;8.04;81.74;98202.03;5032904;28;20033;-55
2022/01/04 04:07:05;;;;;;;6.18;3.38;;;;;;;8.05;81.83;98190.00;5032914;28;20040;-55
2022/01/04 04:09:34;;;;;;;4.20;3.60;;;;;;;8.07;81.55;98201.16;5032893;28;20087;-55
2022/01/04 04:12:01;;;;;;;3.83;3.20;;;;;;;8.05;81.49;98183.13;5034404;28;20045;-55
2022/01/04 04:14:34;;;;;;;5.20;3.30;;;;;;;8.04;81.76;98180.53;5033184;28;20041;-55
2022/01/04 04:17:03;;;;;;;4.65;4.20;;;;;;;8.05;81.67;98174.50;5033036;28;20064;-56
2022/01/04 04:19:34;;;;;;;4.18;3.47;;;;;;;8.06;81.79;98176.22;5016384;28;20044;-56
2022/01/04 04:21:59;;;;;;;4.93;3.33;;;;;;;8.04;81.77;98163.34;5034055;28;20472;-55
2022/01/04 04:24:30;;;;;;;3.72;2.80;;;;;;;8.04;81.77;98157.31;5034265;28;20033;-55
2022/01/04 04:27:01;;;;;;;3.00;2.67;;;;;;;8.04;81.69;98165.94;5032915;28;20045;-55
2022/01/04 04:29:30;;;;;;;3.40;2.78;;;;;;;8.05;81.84;98169.34;5034215;28;20034;-56
2022/01/04 04:31:55;;;;;;;2.95;2.65;;;;;;;8.08;81.63;98177.09;5032721;28;20049;-56
2022/01/04 04:34:23;;;;;;;2.88;2.53;;;;;;;8.07;81.75;98172.78;5033859;28;20025;-57
2022/01/04 04:36:51;;;;;;;2.72;2.22;;;;;;;8.06;81.72;98169.34;5033939;28;20049;-56
2022/01/04 04:39:19;;;;;;;4.47;3.05;;;;;;;8.08;81.90;98171.91;5033805;28;20087;-56
2022/01/04 04:41:49;;;;;;;2.50;2.30;;;;;;;8.11;81.78;98174.50;5033316;28;20041;-56
2022/01/04 04:44:21;;;;;;;3.97;2.85;;;;;;;8.12;81.76;98177.91;5016349;28;20034;-56
2022/01/04 04:46:49;;;;;;;3.45;2.80;;;;;;;8.12;81.82;98176.22;5015886;28;20041;-56
2022/01/04 04:49:15;;;;;;;2.40;2.00;;;;;;;8.11;81.72;98166.75;5015639;28;20060;-54
2022/01/04 04:51:49;;;;;;;2.80;2.53;;;;;;;8.11;81.75;98153.84;5033602;28;20041;-56
2022/01/04 04:54:14;;;;;;;3.70;2.25;;;;;;;8.12;81.82;98147.81;5016230;28;20083;-54
2022/01/04 04:56:40;;;;;;;2.40;2.20;;;;;;;8.12;81.89;98153.00;5032941;28;20033;-54
2022/01/04 04:59:09;;;;;;;3.10;2.30;;;;;;;8.12;81.40;98152.13;5033498;28;20034;-53
2022/01/04 05:01:40;;;;;;;3.05;2.75;;;;;;;8.12;81.50;98144.38;5015492;28;20462;-54
2022/01/04 05:04:06;;;;;;;2.40;2.20;;;;;;;8.11;81.38;98148.69;5033756;28;20037;-54
2022/01/04 05:06:37;;;;;;;4.13;2.83;;;;;;;8.12;81.64;98154.69;5032968;28;20056;-54
2022/01/04 05:09:05;;;;;;;2.80;2.22;;;;;;;8.12;81.57;98154.69;5015480;28;20044;-54
2022/01/04 05:11:33;;;;;;;2.70;2.38;;;;;;;8.10;81.63;98153.88;5015791;28;20127;-54
2022/01/04 05:14:05;;;;;;;2.85;2.40;;;;;;;8.11;81.57;98153.84;5033325;28;20037;-54
2022/01/04 05:16:38;;;;;;;2.28;2.08;;;;;;;8.14;81.36;98155.56;5033091;28;20041;-56
2022/01/04 05:19:13;;;;;;;3.20;2.90;;;;;;;8.14;81.56;98147.81;5033588;28;20107;-56
2022/01/04 05:21:41;;;;;;;2.90;2.60;;;;;;;8.14;81.61;98138.38;5032059;28;20037;-56
2022/01/04 05:24:15;;;;;;;3.15;2.35;;;;;;;8.16;81.39;98144.38;5016088;28;20040;-56
2022/01/04 05:26:52;;;;;;;4.05;2.72;;;;;;;8.17;81.62;98137.47;5031531;28;20037;-56
2022/01/04 05:29:18;;;;;;;2.67;2.45;;;;;;;8.15;81.78;98129.75;5015699;28;20068;-55
2022/01/04 05:31:45;;;;;;;5.95;2.38;;;;;;;8.16;81.61;98126.31;5032332;28;20037;-56
2022/01/04 05:34:11;;;;;;;3.30;2.60;;;;;;;8.17;81.99;98134.91;5033540;28;20037;-56
2022/01/04 05:36:36;;;;;;;3.60;3.05;;;;;;;8.17;81.51;98133.19;5032993;28;20041;-56
2022/01/04 05:39:07;;;;;;;2.78;2.58;;;;;;;8.19;81.70;98140.91;5032626;28;20121;-56
2022/01/04 05:41:33;;;;;;;5.65;2.40;;;;;;;8.20;81.75;98148.63;5031712;28;20033;-56
2022/01/04 05:43:59;;;;;;;3.05;2.75;;;;;;;8.21;81.67;98134.03;5033245;28;20523;-56
2022/01/04 05:46:25;;;;;;;2.90;2.60;;;;;;;8.22;81.30;98133.16;5033140;28;20126;-56
2022/01/04 05:48:50;;;;;;;3.22;2.70;;;;;;;8.21;81.63;98115.97;5033172;28;20107;-56
2022/01/04 05:51:16;;;;;;;2.95;2.42;;;;;;;8.19;81.89;98105.63;5032945;28;20063;-56
2022/01/04 05:53:42;;;;;;;3.17;2.40;;;;;;;8.18;81.74;98098.75;5032582;28;20041;-55
2022/01/04 05:56:10;;;;;;;3.10;2.45;;;;;;;8.17;81.61;98107.38;5015387;28;20084;-56
2022/01/04 05:58:35;;;;;;;3.20;2.90;;;;;;;8.17;81.60;98109.97;5031712;28;20037;-56
2022/01/04 06:01:03;;;;;;;4.55;2.60;;;;;;;8.17;81.40;98102.22;5031852;28;20038;-56
2022/01/04 06:03:29;;;;;;;3.10;2.38;;;;;;;8.16;81.54;98108.25;5014803;28;20092;-56
2022/01/04 06:05:55;;;;;;;3.83;3.00;;;;;;;8.16;81.60;98115.13;5032489;28;20069;-56
2022/01/04 06:08:21;;;;;;;2.95;2.65;;;;;;;8.18;81.43;98113.41;5035581;28;20061;-56
2022/01/04 06:10:51;;;;;;;3.67;3.05;;;;;;;8.18;81.59;98116.81;5035211;28;20412;-55
2022/01/04 06:16:02;;;;;;;2.70;2.35;;;;;;;8.19;81.80;98104.78;5036609;28;20041;-56
2022/01/04 06:18:27;;;;;;;8.48;3.70;;;;;;;8.19;81.68;98104.78;5018404;28;20041;-56
2022/01/04 06:20:55;;;;;;;4.35;3.20;;;;;;;8.19;81.67;98102.22;5036225;28;20068;-56
2022/01/04 06:23:20;;;;;;;6.43;3.53;;;;;;;8.17;81.68;98093.63;5035685;28;20037;-55
2022/01/04 06:25:46;;;;;;;5.38;3.08;;;;;;;8.17;81.69;98086.75;5036453;28;20611;-55
2022/01/04 06:28:11;;;;;;;6.55;3.47;;;;;;;8.16;81.63;98097.06;5035994;28;20033;-55
2022/01/04 06:30:37;;;;;;;4.32;3.10;;;;;;;8.15;81.46;98095.34;5034842;28;20029;-55
2022/01/04 06:33:03;;;;;;;3.85;3.35;;;;;;;8.14;81.51;98085.88;5036390;28;20045;-55
2022/01/04 06:35:30;;;;;;;5.90;3.10;;;;;;;8.14;81.57;98089.34;5034683;28;20388;-55
2022/01/04 06:37:56;;;;;;;5.13;3.20;;;;;;;8.13;81.62;98090.19;5035946;28;20048;-55
2022/01/04 06:40:21;;;;;;;6.45;3.47;;;;;;;8.13;81.53;98074.72;5035922;28;20038;-55
2022/01/04 06:42:47;;;;;;;4.28;3.20;;;;;;;8.12;81.72;98078.16;5035485;28;20550;-55
2022/01/04 06:45:14;;;;;;;6.70;3.70;;;;;;;8.12;81.39;98079.88;5035999;28;20068;-55
2022/01/04 06:47:39;;;;;;;4.00;3.00;;;;;;;8.10;81.55;98067.00;5035540;28;20184;-55
2022/01/04 06:50:06;;;;;;;4.95;3.38;;;;;;;8.07;81.55;98057.56;5017807;28;20504;-55
2022/01/04 06:52:35;;;;;;;3.25;2.92;;;;;;;8.05;81.33;98056.69;5035411;28;20061;-55
2022/01/04 06:55:06;;;;;;;4.57;3.03;;;;;;;8.05;81.58;98063.56;5034742;28;20043;-56
2022/01/04 06:57:37;;;;;;;3.53;2.83;;;;;;;8.03;81.53;98058.44;5034689;28;20041;-54
2022/01/04 07:00:04;;;;;;;3.22;2.60;;;;;;;8.04;81.60;98065.31;5035591;28;20116;-55
2022/01/04 07:02:32;;;;;;;3.83;3.20;;;;;;;8.05;81.59;98066.16;5034166;28;20152;-55
2022/01/04 07:05:06;;;;;;;3.88;2.92;;;;;;;8.08;81.61;98068.72;5034392;28;20505;-56
2022/01/04 07:07:34;;;;;;;3.55;2.75;;;;;;;8.08;81.50;98071.28;5035880;28;20041;-55
2022/01/04 07:10:02;;;;;;;3.22;2.92;;;;;;;8.10;81.66;98073.88;5035332;28;20038;-55
2022/01/04 07:12:31;;;;;;;3.45;2.50;;;;;;;8.12;81.50;98083.31;5035459;28;20069;-55
2022/01/04 07:14:56;;;;;;;3.45;2.85;;;;;;;8.13;81.67;98079.00;5035306;28;20041;-55
2022/01/04 07:17:27;;;;;;;5.13;3.30;;;;;;;8.14;81.65;98083.31;5034182;28;20480;-56
2022/01/04 07:19:56;;;;;;;3.45;3.15;;;;;;;8.13;81.70;98072.13;5033193;28;20500;-56
2022/01/04 07:22:26;;;;;;;3.05;2.58;;;;;;;8.13;81.73;98074.72;5017333;28;20550;-56
2022/01/04 07:24:55;;;;;;;3.30;3.00;;;;;;;8.11;81.40;98063.53;5017609;28;20045;-56
2022/01/04 07:27:20;;;;;;;3.10;2.80;;;;;;;8.11;81.68;98071.28;5034989;28;20037;-56
2022/01/04 07:29:46;;;;;;;3.50;2.75;;;;;;;8.08;81.81;98063.56;5034940;28;20064;-56
2022/01/04 07:32:11;;;;;;;3.45;3.13;;;;;;;8.06;81.56;98055.84;5034410;28;20611;-55
2022/01/04 07:34:40;;;;;;;3.58;3.00;;;;;;;8.06;81.38;98053.25;5034837;28;20404;-56
2022/01/04 07:37:08;;;;;;;3.97;3.17;;;;;;;8.06;81.81;98060.13;5035158;28;20033;-56
2022/01/04 07:39:39;;;;;;;3.92;3.17;;;;;;;8.04;81.61;98067.88;5034987;28;20047;-55
2022/01/04 07:42:08;;;;;;;2.78;2.55;;;;;;;8.05;81.58;98071.31;5033591;28;20041;-56
2022/01/04 07:44:34;;;;;;;3.55;3.25;;;;;;;8.04;81.60;98061.84;5034780;28;20125;-56
2022/01/04 07:47:03;;;;;;;3.70;3.30;;;;;;;8.03;81.62;98063.59;5016531;28;20128;-56
2022/01/04 07:49:28;;;;;;;5.75;3.35;;;;;;;8.03;81.48;98052.41;5016918;28;20041;-56
2022/01/04 07:51:57;;;;;;;4.22;3.13;;;;;;;8.02;81.45;98056.72;5034638;28;20091;-56
2022/01/04 07:54:22;;;;;;;3.72;3.20;;;;;;;8.02;81.78;98063.59;5016666;28;20043;-55
2022/01/04 07:56:56;;;;;;;4.35;3.47;;;;;;;8.02;81.16;98066.19;5033393;28;20396;-55
2022/01/04 07:59:23;;;;;;;3.83;3.30;;;;;;;8.01;81.58;98062.72;5016345;28;20055;-56
2022/01/04 08:01:48;;;;;;;4.43;3.40;;;;;;;8.01;81.60;98061.91;5034135;28;20057;-56
2022/01/04 08:04:16;;;;;;;4.55;3.65;;;;;;;8.01;81.41;98052.41;5034910;28;20120;-56
2022/01/04 08:06:42;;;;;;;4.43;4.03;;;;;;;8.01;81.73;98055.00;5016476;28;20037;-56
2022/01/04 08:09:08;;;;;;;4.47;4.00;;;;;;;8.02;81.63;98053.28;5034510;28;20063;-56
2022/01/04 08:11:36;;;;;;;4.32;3.90;;;;;;;8.02;81.63;98054.13;5034511;28;20045;-56
2022/01/04 08:14:10;;;;;;;5.03;2.95;;;;;;;8.04;81.48;98048.94;5032700;28;20040;-56
2022/01/04 08:16:38;;;;;;;3.50;2.85;;;;;;;8.04;81.52;98047.25;5016859;28;20079;-56
2022/01/04 08:19:04;;;;;;;3.58;3.22;;;;;;;8.05;81.50;98042.94;5034361;28;20037;-56
2022/01/04 08:21:29;;;;;;;5.40;3.28;;;;;;;8.05;81.39;98046.38;5033936;28;20492;-56
2022/01/04 08:23:55;;;;;;;4.53;3.72;;;;;;;8.06;81.69;98044.66;5033900;28;20037;-56
2022/01/04 08:26:21;;;;;;;4.15;3.75;;;;;;;8.06;81.65;98042.06;5016042;28;20049;-56
2022/01/04 08:28:47;;;;;;;5.63;3.92;;;;;;;8.07;81.55;98051.53;5016208;28;20037;-56
2022/01/04 08:31:12;;;;;;;6.07;3.63;;;;;;;8.07;81.75;98051.53;5033198;28;20038;-56
2022/01/04 08:33:39;;;;;;;4.03;3.60;;;;;;;8.08;81.48;98064.44;5032638;28;20041;-55
2022/01/04 08:36:07;;;;;;;4.35;3.70;;;;;;;8.08;81.63;98067.00;5033722;28;20040;-56
2022/01/04 08:38:33;;;;;;;5.32;3.63;;;;;;;8.08;81.55;98077.34;5032567;28;20033;-55
2022/01/04 08:40:58;;;;;;;5.45;3.30;;;;;;;8.10;81.75;98077.31;5032669;28;20040;-54
2022/01/04 08:43:26;;;;;;;4.63;3.30;;;;;;;8.09;81.44;98075.59;5033638;28;20038;-54
2022/01/04 08:45:52;;;;;;;5.53;3.90;;;;;;;8.07;81.58;98062.72;5033050;28;20044;-56
2022/01/04 08:48:17;;;;;;;4.55;3.00;;;;;;;8.07;81.76;98077.31;5032324;28;20037;-54
2022/01/04 08:50:44;;;;;;;4.38;3.90;;;;;;;8.06;81.60;98084.22;5016301;28;20042;-54
2022/01/04 08:53:11;;;;;;;4.25;3.20;;;;;;;8.06;81.41;98078.19;5033608;28;20091;-54
2022/01/04 08:55:39;;;;;;;3.95;3.55;;;;;;;8.07;81.66;98092.81;5033358;28;20197;-55
2022/01/04 08:58:07;;;;;;;5.43;4.20;;;;;;;8.07;81.52;98091.09;5032370;28;20037;-54
2022/01/04 09:00:34;;;;;;;7.53;3.70;;;;;;;8.07;81.28;98082.47;5033544;28;20042;-54
2022/01/04 09:03:03;;;;;;;4.78;3.78;;;;;;;8.06;81.51;98079.06;5015562;28;20064;-54
2022/01/04 09:05:29;;;;;;;4.25;3.35;;;;;;;8.04;81.78;98069.59;5033329;28;20025;-54
2022/01/04 09:07:55;;;;;;;5.90;3.75;;;;;;;8.02;81.54;98053.28;5033377;28;20064;-55
2022/01/04 09:10:21;;;;;;;4.72;3.88;;;;;;;8.02;81.59;98066.19;5033003;28;20507;-54
2022/01/04 09:13:09;;;;;;;5.47;4.25;;;;;;;8.01;81.63;98072.22;5032204;28;20041;-54
2022/01/04 09:15:56;;;;;;;6.53;4.35;;;;;;;7.99;81.79;98086.84;5015546;28;20504;-54
2022/01/04 09:21:04;;;;;;;6.63;4.13;;;;;;;7.97;81.45;98093.72;5033343;28;20026;-56
2022/01/04 09:23:29;;;;;;;3.97;3.45;;;;;;;7.96;81.54;98092.84;5033114;28;20048;-56
2022/01/04 09:25:58;;;;;;;5.22;3.55;;;;;;;7.96;81.58;98090.25;5033104;28;20382;-56
2022/01/04 09:28:24;;;;;;;5.43;3.90;;;;;;;7.97;81.52;98085.97;5015553;28;20382;-56
2022/01/04 09:30:51;;;;;;;3.95;3.45;;;;;;;7.93;81.69;98088.56;5033583;28;20103;-56
2022/01/04 09:33:18;;;;;;;4.70;3.88;;;;;;;7.96;81.67;98086.84;5032788;28;20037;-56
2022/01/04 09:35:44;;;;;;;4.25;3.78;;;;;;;7.95;81.49;98092.88;5015466;28;20034;-57
2022/01/04 09:38:14;;;;;;;4.38;3.25;;;;;;;7.94;81.23;98089.44;5032943;28;20037;-55
2022/01/04 09:40:45;;;;;;;4.15;3.58;;;;;;;7.94;81.42;98092.03;5015795;28;20038;-56
2022/01/04 09:43:14;;;;;;;4.30;3.10;;;;;;;7.95;81.74;98090.28;5017974;28;20040;-56
2022/01/04 09:45:43;;;;;;;7.00;4.00;;;;;;;7.95;81.55;98092.88;5035694;28;20045;-55
2022/01/04 09:48:08;;;;;;;4.18;3.78;;;;;;;7.95;81.58;98105.75;5035260;28;20052;-56
2022/01/04 09:50:37;;;;;;;4.63;4.10;;;;;;;7.92;81.42;98097.16;5036851;28;20037;-56
2022/01/04 09:53:06;;;;;;;5.43;4.10;;;;;;;7.91;81.74;98105.78;5019495;28;20045;-56
2022/01/04 09:55:35;;;;;;;4.75;3.97;;;;;;;7.91;81.63;98104.94;5035971;28;20082;-56
2022/01/04 09:58:01;;;;;;;5.05;3.95;;;;;;;7.91;81.54;98108.34;5018846;28;20045;-55
2022/01/04 10:00:29;;;;;;;6.82;4.05;;;;;;;7.90;81.64;98114.38;5036253;28;20037;-55
2022/01/04 10:03:12;;;;;;;6.57;4.03;;;;;;;7.88;81.38;98116.09;5034883;28;20103;-55
2022/01/04 10:05:39;;;;;;;5.45;4.35;;;;;;;7.88;81.50;98121.25;5035437;28;20045;-56
2022/01/04 10:08:07;;;;;;;9.45;4.43;;;;;;;7.87;81.65;98121.28;5036391;28;20057;-55
2022/01/04 10:10:34;;;;;;;4.78;4.32;;;;;;;7.87;81.58;98119.53;5018773;28;20037;-55
2022/01/04 10:13:03;;;;;;;5.57;4.35;;;;;;;7.87;81.71;98113.53;5018790;28;20037;-55
2022/01/04 10:15:36;;;;;;;6.38;4.38;;;;;;;7.88;81.72;98120.41;5018576;28;20079;-55
2022/01/04 10:18:14;;;;;;;6.13;4.53;;;;;;;7.86;81.69;98124.72;5019169;28;20040;-55
2022/01/04 10:20:46;;;;;;;7.90;4.70;;;;;;;7.86;81.68;98107.50;5036336;28;20104;-56
2022/01/04 10:23:15;;;;;;;7.13;5.15;;;;;;;7.87;81.68;98104.06;5018343;28;20045;-55
2022/01/04 10:25:41;;;;;;;6.85;5.63;;;;;;;7.86;81.46;98107.50;5018475;28;20481;-56
2022/01/04 10:28:07;;;;;;;6.25;5.63;;;;;;;7.86;81.51;98110.09;5018381;28;20052;-55
2022/01/04 10:30:38;;;;;;;6.90;6.20;;;;;;;7.86;81.35;98104.91;5036325;28;20037;-55
2022/01/04 10:33:07;;;;;;;6.35;5.40;;;;;;;7.85;81.79;98105.81;5018673;28;20041;-55
2022/01/04 10:35:40;;;;;;;6.60;4.82;;;;;;;7.87;81.46;98111.81;5036071;28;20033;-55
2022/01/04 10:38:15;;;;;;;7.78;5.80;;;;;;;7.86;81.87;98104.91;5018322;28;20484;-56
2022/01/04 10:40:44;;;;;;;7.50;6.10;;;;;;;7.85;81.71;98100.66;5035451;28;20076;-55
2022/01/04 10:43:16;;;;;;;8.00;6.38;;;;;;;7.85;81.51;98095.50;5018175;28;20523;-55
2022/01/04 10:45:42;;;;;;;8.05;6.18;;;;;;;7.88;81.92;98094.63;5018562;28;20034;-55
2022/01/04 10:48:17;;;;;;;8.13;5.88;;;;;;;7.87;81.92;98083.44;5017844;28;20140;-55
2022/01/04 10:50:45;;;;;;;7.93;5.78;;;;;;;7.86;81.70;98086.88;5017995;28;20112;-55
2022/01/04 10:53:33;;;;;;;10.13;5.88;;;;;;;7.86;81.42;98092.03;5017586;28;20461;-55
2022/01/04 10:56:02;;;;;;;7.20;6.43;;;;;;;7.88;81.57;98097.19;5034533;28;20489;-55
2022/01/04 10:58:40;;;;;;;7.45;6.10;;;;;;;7.86;81.89;98086.03;5017681;28;20492;-55
2022/01/04 11:01:10;;;;;;;8.68;6.72;;;;;;;7.84;81.59;98082.59;5034007;28;20080;-55
2022/01/04 11:03:39;;;;;;;9.57;6.32;;;;;;;7.83;81.93;98073.13;5017513;28;20467;-55
2022/01/04 11:06:13;;;;;;;8.45;7.00;;;;;;;7.83;81.92;98080.88;5035448;28;20034;-55
2022/01/04 11:08:40;;;;;;;8.77;6.68;;;;;;;7.82;81.51;98084.31;5018084;28;20033;-55
2022/01/04 11:11:06;;;;;;;6.82;5.63;;;;;;;7.83;81.63;98079.16;5017983;28;20038;-56
2022/01/04 11:13:32;;;;;;;9.98;6.60;;;;;;;7.83;82.10;98079.16;5035426;28;20033;-55
2022/01/04 11:16:02;;;;;;;9.65;5.95;;;;;;;7.84;81.85;98083.47;5035218;28;20033;-55
2022/01/04 11:18:31;;;;;;;9.50;7.70;;;;;;;7.84;81.49;98086.03;5035381;28;20378;-55
2022/01/04 11:20:58;;;;;;;7.95;6.32;;;;;;;7.84;81.75;98091.22;5034286;28;20052;-55
2022/01/04 11:23:26;;;;;;;10.13;6.68;;;;;;;7.84;81.83;98098.94;5017420;28;20389;-55
2022/01/04 11:25:53;;;;;;;7.88;6.85;;;;;;;7.84;81.62;98080.88;5017619;28;20041;-55
2022/01/04 11:28:18;;;;;;;11.10;6.45;;;;;;;7.85;82.07;98086.88;5017267;28;20507;-55
2022/01/04 11:31:05;;;;;;;6.70;6.05;;;;;;;7.85;81.47;98089.47;5034758;28;20037;-55
2022/01/04 11:33:45;;;;;;;9.98;6.10;;;;;;;7.84;81.47;98091.22;5017606;28;20041;-55
2022/01/04 11:36:15;;;;;;;7.07;5.55;;;;;;;7.84;81.54;98082.59;5017078;28;20535;-55
2022/01/04 11:38:41;;;;;;;9.00;6.70;;;;;;;7.85;81.79;98092.91;5017014;28;20033;-55
2022/01/04 11:41:06;;;;;;;10.73;6.22;;;;;;;7.86;81.85;98088.59;5034502;28;20063;-55
2022/01/04 11:43:35;;;;;;;7.22;6.20;;;;;;;7.86;81.76;98097.19;5034113;28;20041;-55
2022/01/04 11:46:01;;;;;;;7.22;5.90;;;;;;;7.86;81.91;98101.50;5017321;28;20389;-55
2022/01/04 11:48:35;;;;;;;9.88;6.32;;;;;;;7.86;82.01;98104.91;5034638;28;20067;-55
2022/01/04 11:51:07;;;;;;;7.43;6.03;;;;;;;7.86;81.72;98107.50;5034158;28;20026;-55
2022/01/04 11:53:34;;;;;;;9.05;6.43;;;;;;;7.86;81.85;98107.50;5034095;28;20523;-55
2022/01/04 11:56:06;;;;;;;6.40;5.75;;;;;;;7.87;81.83;98118.69;5033149;28;20036;-56